sensor_id;sensor_type;location;lat;lon;timestamp;P1;durP1;ratioP1;P2;durP2;ratioP2
54384;SDS011;40284;52.878;5.998;2023-06-10T00:01:36;11.65;;;5.70;;
54384;SDS011;40284;52.878;5.998;2023-06-10T00:04:03;10.75;;;6.18;;
54384;SDS011;40284;52.878;5.998;2023-06-10T00:06:29;9.57;;;5.22;;
54384;SDS011;40284;52.878;5.998;2023-06-10T00:09:04;13.38;;;5.70;;
54384;SDS011;40284;52.878;5.998;2023-06-10T00:11:33;11.40;;;6.38;;
54384;SDS011;40284;52.878;5.998;2023-06-10T00:14:00;11.68;;;5.85;;
54384;SDS011;40284;52.878;5.998;2023-06-10T00:16:26;9.68;;;5.65;;
54384;SDS011;40284;52.878;5.998;2023-06-10T00:18:52;14.05;;;6.38;;
54384;SDS011;40284;52.878;5.998;2023-06-10T00:21:21;11.43;;;6.35;;
54384;SDS011;40284;52.878;5.998;2023-06-10T00:23:47;9.30;;;5.72;;
54384;SDS011;40284;52.878;5.998;2023-06-10T00:26:13;12.60;;;7.15;;
54384;SDS011;40284;52.878;5.998;2023-06-10T00:28:40;13.35;;;6.18;;
54384;SDS011;40284;52.878;5.998;2023-06-10T00:31:06;10.30;;;6.20;;
54384;SDS011;40284;52.878;5.998;2023-06-10T00:33:33;10.23;;;6.38;;
54384;SDS011;40284;52.878;5.998;2023-06-10T00:35:59;9.32;;;6.18;;
54384;SDS011;40284;52.878;5.998;2023-06-10T00:38:25;8.93;;;5.90;;
54384;SDS011;40284;52.878;5.998;2023-06-10T00:40:51;9.48;;;6.00;;
54384;SDS011;40284;52.878;5.998;2023-06-10T00:43:17;11.48;;;5.55;;
54384;SDS011;40284;52.878;5.998;2023-06-10T00:45:43;14.68;;;5.95;;
54384;SDS011;40284;52.878;5.998;2023-06-10T00:48:09;11.20;;;6.43;;
54384;SDS011;40284;52.878;5.998;2023-06-10T00:50:36;12.15;;;6.63;;
54384;SDS011;40284;52.878;5.998;2023-06-10T00:53:04;10.27;;;6.28;;
54384;SDS011;40284;52.878;5.998;2023-06-10T00:55:30;12.32;;;6.35;;
54384;SDS011;40284;52.878;5.998;2023-06-10T00:57:57;10.38;;;5.97;;
54384;SDS011;40284;52.878;5.998;2023-06-10T01:00:24;12.63;;;6.97;;
54384;SDS011;40284;52.878;5.998;2023-06-10T01:02:51;9.65;;;5.90;;
54384;SDS011;40284;52.878;5.998;2023-06-10T01:05:17;13.27;;;6.53;;
54384;SDS011;40284;52.878;5.998;2023-06-10T01:07:52;8.80;;;5.90;;
54384;SDS011;40284;52.878;5.998;2023-06-10T01:13:05;12.38;;;6.75;;
54384;SDS011;40284;52.878;5.998;2023-06-10T01:15:33;11.65;;;6.63;;
54384;SDS011;40284;52.878;5.998;2023-06-10T01:18:06;10.25;;;6.15;;
54384;SDS011;40284;52.878;5.998;2023-06-10T01:20:40;10.98;;;6.53;;
54384;SDS011;40284;52.878;5.998;2023-06-10T01:23:06;10.23;;;5.60;;
54384;SDS011;40284;52.878;5.998;2023-06-10T01:25:33;9.20;;;5.97;;
54384;SDS011;40284;52.878;5.998;2023-06-10T01:30:30;13.90;;;6.55;;
54384;SDS011;40284;52.878;5.998;2023-06-10T01:32:58;9.40;;;6.15;;
54384;SDS011;40284;52.878;5.998;2023-06-10T01:35:26;13.63;;;6.82;;
54384;SDS011;40284;52.878;5.998;2023-06-10T01:37:53;10.77;;;6.30;;
54384;SDS011;40284;52.878;5.998;2023-06-10T01:40:20;9.90;;;7.00;;
54384;SDS011;40284;52.878;5.998;2023-06-10T01:42:46;10.93;;;7.05;;
54384;SDS011;40284;52.878;5.998;2023-06-10T01:45:12;10.07;;;6.70;;
54384;SDS011;40284;52.878;5.998;2023-06-10T01:47:38;11.93;;;6.47;;
54384;SDS011;40284;52.878;5.998;2023-06-10T01:50:04;12.18;;;6.10;;
54384;SDS011;40284;52.878;5.998;2023-06-10T01:52:31;11.27;;;6.78;;
54384;SDS011;40284;52.878;5.998;2023-06-10T01:54:57;14.18;;;6.43;;
54384;SDS011;40284;52.878;5.998;2023-06-10T01:57:23;14.23;;;6.45;;
54384;SDS011;40284;52.878;5.998;2023-06-10T01:59:49;10.52;;;6.68;;
54384;SDS011;40284;52.878;5.998;2023-06-10T02:02:15;11.98;;;6.55;;
54384;SDS011;40284;52.878;5.998;2023-06-10T02:04:41;10.55;;;6.22;;
54384;SDS011;40284;52.878;5.998;2023-06-10T02:07:07;11.00;;;7.22;;
54384;SDS011;40284;52.878;5.998;2023-06-10T02:09:33;12.85;;;6.93;;
54384;SDS011;40284;52.878;5.998;2023-06-10T02:12:01;13.07;;;7.18;;
54384;SDS011;40284;52.878;5.998;2023-06-10T02:14:29;14.98;;;6.70;;
54384;SDS011;40284;52.878;5.998;2023-06-10T02:16:55;9.63;;;6.65;;
54384;SDS011;40284;52.878;5.998;2023-06-10T02:19:22;12.48;;;6.40;;
54384;SDS011;40284;52.878;5.998;2023-06-10T02:21:48;11.30;;;6.72;;
54384;SDS011;40284;52.878;5.998;2023-06-10T02:24:15;15.57;;;7.53;;
54384;SDS011;40284;52.878;5.998;2023-06-10T02:26:41;9.95;;;6.30;;
54384;SDS011;40284;52.878;5.998;2023-06-10T02:29:07;11.52;;;6.68;;
54384;SDS011;40284;52.878;5.998;2023-06-10T02:31:34;13.40;;;6.53;;
54384;SDS011;40284;52.878;5.998;2023-06-10T02:34:03;11.63;;;6.40;;
54384;SDS011;40284;52.878;5.998;2023-06-10T02:36:29;13.90;;;7.03;;
54384;SDS011;40284;52.878;5.998;2023-06-10T02:38:55;9.85;;;6.47;;
54384;SDS011;40284;52.878;5.998;2023-06-10T02:41:21;9.68;;;7.07;;
54384;SDS011;40284;52.878;5.998;2023-06-10T02:43:47;14.18;;;7.65;;
54384;SDS011;40284;52.878;5.998;2023-06-10T02:46:13;13.45;;;7.40;;
54384;SDS011;40284;52.878;5.998;2023-06-10T02:48:40;12.98;;;6.50;;
54384;SDS011;40284;52.878;5.998;2023-06-10T02:51:07;11.82;;;6.40;;
54384;SDS011;40284;52.878;5.998;2023-06-10T02:53:33;15.00;;;6.88;;
54384;SDS011;40284;52.878;5.998;2023-06-10T02:55:59;13.10;;;6.82;;
54384;SDS011;40284;52.878;5.998;2023-06-10T02:58:26;11.82;;;6.65;;
54384;SDS011;40284;52.878;5.998;2023-06-10T03:00:52;10.35;;;5.90;;
54384;SDS011;40284;52.878;5.998;2023-06-10T03:03:18;10.25;;;6.55;;
54384;SDS011;40284;52.878;5.998;2023-06-10T03:05:45;10.68;;;6.65;;
54384;SDS011;40284;52.878;5.998;2023-06-10T03:08:11;11.45;;;7.65;;
54384;SDS011;40284;52.878;5.998;2023-06-10T03:10:37;14.55;;;6.60;;
54384;SDS011;40284;52.878;5.998;2023-06-10T03:13:03;12.90;;;6.63;;
54384;SDS011;40284;52.878;5.998;2023-06-10T03:15:30;9.65;;;7.00;;
54384;SDS011;40284;52.878;5.998;2023-06-10T03:17:58;10.75;;;6.30;;
54384;SDS011;40284;52.878;5.998;2023-06-10T03:20:25;12.15;;;6.82;;
54384;SDS011;40284;52.878;5.998;2023-06-10T03:22:53;11.38;;;6.65;;
54384;SDS011;40284;52.878;5.998;2023-06-10T03:25:19;12.25;;;6.35;;
54384;SDS011;40284;52.878;5.998;2023-06-10T03:27:45;13.70;;;6.63;;
54384;SDS011;40284;52.878;5.998;2023-06-10T03:30:12;13.55;;;6.78;;
54384;SDS011;40284;52.878;5.998;2023-06-10T03:32:38;11.32;;;6.15;;
54384;SDS011;40284;52.878;5.998;2023-06-10T03:35:06;14.93;;;6.38;;
54384;SDS011;40284;52.878;5.998;2023-06-10T03:37:32;11.35;;;6.70;;
54384;SDS011;40284;52.878;5.998;2023-06-10T03:39:58;13.95;;;6.53;;
54384;SDS011;40284;52.878;5.998;2023-06-10T03:42:24;13.48;;;6.47;;
54384;SDS011;40284;52.878;5.998;2023-06-10T03:44:51;7.70;;;5.72;;
54384;SDS011;40284;52.878;5.998;2023-06-10T03:47:17;11.63;;;7.07;;
54384;SDS011;40284;52.878;5.998;2023-06-10T03:49:43;10.70;;;5.85;;
54384;SDS011;40284;52.878;5.998;2023-06-10T03:52:09;12.55;;;6.18;;
54384;SDS011;40284;52.878;5.998;2023-06-10T03:54:35;11.50;;;6.18;;
54384;SDS011;40284;52.878;5.998;2023-06-10T03:57:01;10.45;;;5.95;;
54384;SDS011;40284;52.878;5.998;2023-06-10T03:59:28;13.55;;;6.38;;
54384;SDS011;40284;52.878;5.998;2023-06-10T04:01:54;8.65;;;6.40;;
54384;SDS011;40284;52.878;5.998;2023-06-10T04:04:20;7.38;;;5.55;;
54384;SDS011;40284;52.878;5.998;2023-06-10T04:06:46;12.00;;;6.88;;
54384;SDS011;40284;52.878;5.998;2023-06-10T04:09:13;9.95;;;5.55;;
54384;SDS011;40284;52.878;5.998;2023-06-10T04:11:40;9.02;;;5.47;;
54384;SDS011;40284;52.878;5.998;2023-06-10T04:14:07;10.02;;;5.55;;
54384;SDS011;40284;52.878;5.998;2023-06-10T04:16:33;12.77;;;5.20;;
54384;SDS011;40284;52.878;5.998;2023-06-10T04:19:00;11.73;;;6.47;;
54384;SDS011;40284;52.878;5.998;2023-06-10T04:21:26;9.27;;;5.72;;
54384;SDS011;40284;52.878;5.998;2023-06-10T04:23:53;11.52;;;6.55;;
54384;SDS011;40284;52.878;5.998;2023-06-10T04:26:19;10.40;;;5.55;;
54384;SDS011;40284;52.878;5.998;2023-06-10T04:28:45;9.30;;;5.45;;
54384;SDS011;40284;52.878;5.998;2023-06-10T04:31:11;10.88;;;5.80;;
54384;SDS011;40284;52.878;5.998;2023-06-10T04:33:38;10.70;;;5.72;;
54384;SDS011;40284;52.878;5.998;2023-06-10T04:36:04;7.85;;;5.50;;
54384;SDS011;40284;52.878;5.998;2023-06-10T04:38:31;8.32;;;5.30;;
54384;SDS011;40284;52.878;5.998;2023-06-10T04:40:58;11.57;;;4.90;;
54384;SDS011;40284;52.878;5.998;2023-06-10T04:43:24;11.20;;;5.63;;
54384;SDS011;40284;52.878;5.998;2023-06-10T04:45:50;11.05;;;5.47;;
54384;SDS011;40284;52.878;5.998;2023-06-10T04:48:16;9.20;;;6.25;;
54384;SDS011;40284;52.878;5.998;2023-06-10T04:50:42;9.75;;;6.20;;
54384;SDS011;40284;52.878;5.998;2023-06-10T04:53:08;9.20;;;5.82;;
54384;SDS011;40284;52.878;5.998;2023-06-10T04:55:34;6.85;;;5.00;;
54384;SDS011;40284;52.878;5.998;2023-06-10T04:58:01;9.30;;;5.30;;
54384;SDS011;40284;52.878;5.998;2023-06-10T05:00:27;10.18;;;5.53;;
54384;SDS011;40284;52.878;5.998;2023-06-10T05:02:53;11.45;;;5.20;;
54384;SDS011;40284;52.878;5.998;2023-06-10T05:05:21;9.82;;;5.10;;
54384;SDS011;40284;52.878;5.998;2023-06-10T05:07:47;9.60;;;5.95;;
54384;SDS011;40284;52.878;5.998;2023-06-10T05:10:13;10.35;;;4.95;;
54384;SDS011;40284;52.878;5.998;2023-06-10T05:12:40;11.27;;;5.90;;
54384;SDS011;40284;52.878;5.998;2023-06-10T05:15:07;8.57;;;5.65;;
54384;SDS011;40284;52.878;5.998;2023-06-10T05:17:33;9.57;;;4.97;;
54384;SDS011;40284;52.878;5.998;2023-06-10T05:20:03;9.90;;;5.97;;
54384;SDS011;40284;52.878;5.998;2023-06-10T05:22:29;8.07;;;4.80;;
54384;SDS011;40284;52.878;5.998;2023-06-10T05:24:55;11.43;;;5.43;;
54384;SDS011;40284;52.878;5.998;2023-06-10T05:27:22;10.55;;;5.03;;
54384;SDS011;40284;52.878;5.998;2023-06-10T05:29:48;10.23;;;5.22;;
54384;SDS011;40284;52.878;5.998;2023-06-10T05:32:14;7.95;;;5.32;;
54384;SDS011;40284;52.878;5.998;2023-06-10T05:34:40;10.15;;;5.80;;
54384;SDS011;40284;52.878;5.998;2023-06-10T05:37:06;11.90;;;6.03;;
54384;SDS011;40284;52.878;5.998;2023-06-10T05:39:32;8.50;;;5.35;;
54384;SDS011;40284;52.878;5.998;2023-06-10T05:42:02;9.90;;;5.32;;
54384;SDS011;40284;52.878;5.998;2023-06-10T05:44:28;11.27;;;5.32;;
54384;SDS011;40284;52.878;5.998;2023-06-10T05:46:55;8.30;;;4.85;;
54384;SDS011;40284;52.878;5.998;2023-06-10T05:49:21;16.40;;;5.72;;
54384;SDS011;40284;52.878;5.998;2023-06-10T05:51:47;13.90;;;6.50;;
54384;SDS011;40284;52.878;5.998;2023-06-10T05:54:13;12.35;;;5.32;;
54384;SDS011;40284;52.878;5.998;2023-06-10T05:56:39;10.75;;;5.30;;
54384;SDS011;40284;52.878;5.998;2023-06-10T05:59:05;10.95;;;5.43;;
54384;SDS011;40284;52.878;5.998;2023-06-10T06:01:31;12.23;;;5.18;;
54384;SDS011;40284;52.878;5.998;2023-06-10T06:03:57;7.95;;;5.05;;
54384;SDS011;40284;52.878;5.998;2023-06-10T06:06:23;10.32;;;5.60;;
54384;SDS011;40284;52.878;5.998;2023-06-10T06:08:50;11.50;;;4.95;;
54384;SDS011;40284;52.878;5.998;2023-06-10T06:11:16;8.70;;;5.07;;
54384;SDS011;40284;52.878;5.998;2023-06-10T06:13:42;11.70;;;6.10;;
54384;SDS011;40284;52.878;5.998;2023-06-10T06:16:08;11.38;;;6.15;;
54384;SDS011;40284;52.878;5.998;2023-06-10T06:18:34;8.73;;;5.43;;
54384;SDS011;40284;52.878;5.998;2023-06-10T06:21:00;10.88;;;5.55;;
54384;SDS011;40284;52.878;5.998;2023-06-10T06:23:26;11.05;;;5.00;;
54384;SDS011;40284;52.878;5.998;2023-06-10T06:25:52;10.65;;;4.80;;
54384;SDS011;40284;52.878;5.998;2023-06-10T06:28:19;10.60;;;5.18;;
54384;SDS011;40284;52.878;5.998;2023-06-10T06:30:46;9.38;;;5.15;;
54384;SDS011;40284;52.878;5.998;2023-06-10T06:33:12;8.43;;;4.25;;
54384;SDS011;40284;52.878;5.998;2023-06-10T06:35:38;14.48;;;4.97;;
54384;SDS011;40284;52.878;5.998;2023-06-10T06:38:05;8.45;;;5.30;;
54384;SDS011;40284;52.878;5.998;2023-06-10T06:40:31;6.95;;;5.10;;
54384;SDS011;40284;52.878;5.998;2023-06-10T06:42:57;10.20;;;4.88;;
54384;SDS011;40284;52.878;5.998;2023-06-10T06:45:23;10.15;;;5.18;;
54384;SDS011;40284;52.878;5.998;2023-06-10T06:47:49;12.70;;;6.10;;
54384;SDS011;40284;52.878;5.998;2023-06-10T06:50:16;8.63;;;4.40;;
54384;SDS011;40284;52.878;5.998;2023-06-10T06:52:42;12.45;;;4.65;;
54384;SDS011;40284;52.878;5.998;2023-06-10T06:55:08;15.27;;;4.90;;
54384;SDS011;40284;52.878;5.998;2023-06-10T06:57:34;14.68;;;5.32;;
54384;SDS011;40284;52.878;5.998;2023-06-10T07:00:01;10.85;;;4.70;;
54384;SDS011;40284;52.878;5.998;2023-06-10T07:02:27;8.38;;;4.75;;
54384;SDS011;40284;52.878;5.998;2023-06-10T07:04:53;8.95;;;4.55;;
54384;SDS011;40284;52.878;5.998;2023-06-10T07:07:21;8.63;;;4.65;;
54384;SDS011;40284;52.878;5.998;2023-06-10T07:09:47;8.50;;;4.47;;
54384;SDS011;40284;52.878;5.998;2023-06-10T07:12:13;10.15;;;4.65;;
54384;SDS011;40284;52.878;5.998;2023-06-10T07:14:39;7.88;;;5.05;;
54384;SDS011;40284;52.878;5.998;2023-06-10T07:17:05;8.38;;;4.68;;
54384;SDS011;40284;52.878;5.998;2023-06-10T07:19:32;11.45;;;5.00;;
54384;SDS011;40284;52.878;5.998;2023-06-10T07:21:58;10.98;;;4.30;;
54384;SDS011;40284;52.878;5.998;2023-06-10T07:24:24;8.00;;;4.55;;
54384;SDS011;40284;52.878;5.998;2023-06-10T07:26:50;10.45;;;5.53;;
54384;SDS011;40284;52.878;5.998;2023-06-10T07:29:16;10.20;;;6.03;;
54384;SDS011;40284;52.878;5.998;2023-06-10T07:31:42;9.13;;;4.88;;
54384;SDS011;40284;52.878;5.998;2023-06-10T07:34:08;9.05;;;5.18;;
54384;SDS011;40284;52.878;5.998;2023-06-10T07:36:34;8.40;;;4.55;;
54384;SDS011;40284;52.878;5.998;2023-06-10T07:39:01;7.55;;;4.88;;
54384;SDS011;40284;52.878;5.998;2023-06-10T07:41:27;11.82;;;5.13;;
54384;SDS011;40284;52.878;5.998;2023-06-10T07:43:53;9.88;;;5.05;;
54384;SDS011;40284;52.878;5.998;2023-06-10T07:46:21;11.00;;;5.82;;
54384;SDS011;40284;52.878;5.998;2023-06-10T07:48:48;8.40;;;4.68;;
54384;SDS011;40284;52.878;5.998;2023-06-10T07:51:17;8.38;;;5.03;;
54384;SDS011;40284;52.878;5.998;2023-06-10T07:53:43;7.15;;;4.03;;
54384;SDS011;40284;52.878;5.998;2023-06-10T07:56:09;10.30;;;5.70;;
54384;SDS011;40284;52.878;5.998;2023-06-10T07:58:35;7.60;;;4.25;;
54384;SDS011;40284;52.878;5.998;2023-06-10T08:01:01;10.23;;;5.93;;
54384;SDS011;40284;52.878;5.998;2023-06-10T08:03:27;9.18;;;4.30;;
54384;SDS011;40284;52.878;5.998;2023-06-10T08:05:53;10.70;;;4.97;;
54384;SDS011;40284;52.878;5.998;2023-06-10T08:08:19;11.68;;;4.63;;
54384;SDS011;40284;52.878;5.998;2023-06-10T08:10:45;9.63;;;4.18;;
54384;SDS011;40284;52.878;5.998;2023-06-10T08:13:12;10.55;;;4.65;;
54384;SDS011;40284;52.878;5.998;2023-06-10T08:15:38;13.45;;;7.22;;
54384;SDS011;40284;52.878;5.998;2023-06-10T08:18:04;10.43;;;4.88;;
54384;SDS011;40284;52.878;5.998;2023-06-10T08:20:30;9.57;;;4.30;;
54384;SDS011;40284;52.878;5.998;2023-06-10T08:22:57;7.20;;;4.20;;
54384;SDS011;40284;52.878;5.998;2023-06-10T08:25:23;13.35;;;4.70;;
54384;SDS011;40284;52.878;5.998;2023-06-10T08:27:49;11.82;;;4.55;;
54384;SDS011;40284;52.878;5.998;2023-06-10T08:30:17;12.82;;;4.47;;
54384;SDS011;40284;52.878;5.998;2023-06-10T08:32:43;7.97;;;4.22;;
54384;SDS011;40284;52.878;5.998;2023-06-10T08:35:09;7.40;;;4.03;;
54384;SDS011;40284;52.878;5.998;2023-06-10T08:37:35;11.65;;;4.38;;
54384;SDS011;40284;52.878;5.998;2023-06-10T08:40:02;7.45;;;4.30;;
54384;SDS011;40284;52.878;5.998;2023-06-10T08:42:45;7.88;;;4.60;;
54384;SDS011;40284;52.878;5.998;2023-06-10T08:45:18;12.88;;;5.13;;
54384;SDS011;40284;52.878;5.998;2023-06-10T08:47:45;11.52;;;4.60;;
54384;SDS011;40284;52.878;5.998;2023-06-10T08:50:11;12.10;;;4.00;;
54384;SDS011;40284;52.878;5.998;2023-06-10T08:52:38;7.82;;;4.40;;
54384;SDS011;40284;52.878;5.998;2023-06-10T08:57:35;8.15;;;4.13;;
54384;SDS011;40284;52.878;5.998;2023-06-10T09:00:02;12.63;;;4.75;;
54384;SDS011;40284;52.878;5.998;2023-06-10T09:02:28;10.23;;;4.60;;
54384;SDS011;40284;52.878;5.998;2023-06-10T09:04:56;14.57;;;5.25;;
54384;SDS011;40284;52.878;5.998;2023-06-10T09:07:22;12.82;;;4.60;;
54384;SDS011;40284;52.878;5.998;2023-06-10T09:09:49;7.15;;;4.45;;
54384;SDS011;40284;52.878;5.998;2023-06-10T09:12:15;7.88;;;4.00;;
54384;SDS011;40284;52.878;5.998;2023-06-10T09:14:44;6.50;;;3.53;;
54384;SDS011;40284;52.878;5.998;2023-06-10T09:17:10;8.15;;;4.10;;
54384;SDS011;40284;52.878;5.998;2023-06-10T09:19:37;7.97;;;4.38;;
54384;SDS011;40284;52.878;5.998;2023-06-10T09:22:04;11.90;;;5.03;;
54384;SDS011;40284;52.878;5.998;2023-06-10T09:24:30;5.93;;;4.15;;
54384;SDS011;40284;52.878;5.998;2023-06-10T09:27:01;6.43;;;4.63;;
54384;SDS011;40284;52.878;5.998;2023-06-10T09:29:28;5.63;;;3.67;;
54384;SDS011;40284;52.878;5.998;2023-06-10T09:31:54;7.88;;;4.25;;
54384;SDS011;40284;52.878;5.998;2023-06-10T09:34:20;14.75;;;4.90;;
54384;SDS011;40284;52.878;5.998;2023-06-10T09:36:50;6.28;;;3.83;;
54384;SDS011;40284;52.878;5.998;2023-06-10T09:39:17;6.75;;;3.83;;
54384;SDS011;40284;52.878;5.998;2023-06-10T09:41:44;8.30;;;3.83;;
54384;SDS011;40284;52.878;5.998;2023-06-10T09:46:39;9.73;;;3.90;;
54384;SDS011;40284;52.878;5.998;2023-06-10T09:49:05;6.68;;;3.70;;
54384;SDS011;40284;52.878;5.998;2023-06-10T09:51:32;7.80;;;4.22;;
54384;SDS011;40284;52.878;5.998;2023-06-10T09:53:58;7.13;;;4.22;;
54384;SDS011;40284;52.878;5.998;2023-06-10T09:56:36;5.93;;;3.88;;
54384;SDS011;40284;52.878;5.998;2023-06-10T09:59:05;8.25;;;4.30;;
54384;SDS011;40284;52.878;5.998;2023-06-10T10:01:32;6.38;;;3.67;;
54384;SDS011;40284;52.878;5.998;2023-06-10T10:03:58;8.52;;;4.15;;
54384;SDS011;40284;52.878;5.998;2023-06-10T10:06:24;4.65;;;3.83;;
54384;SDS011;40284;52.878;5.998;2023-06-10T10:08:51;10.07;;;4.20;;
54384;SDS011;40284;52.878;5.998;2023-06-10T10:11:18;8.82;;;3.78;;
54384;SDS011;40284;52.878;5.998;2023-06-10T10:13:47;5.38;;;3.70;;
54384;SDS011;40284;52.878;5.998;2023-06-10T10:16:17;5.80;;;3.75;;
54384;SDS011;40284;52.878;5.998;2023-06-10T10:18:54;5.82;;;4.10;;
54384;SDS011;40284;52.878;5.998;2023-06-10T10:21:22;5.95;;;3.70;;
54384;SDS011;40284;52.878;5.998;2023-06-10T10:26:19;7.28;;;3.85;;
54384;SDS011;40284;52.878;5.998;2023-06-10T10:29:47;6.20;;;3.33;;
54384;SDS011;40284;52.878;5.998;2023-06-10T10:31:43;5.30;;;3.70;;
54384;SDS011;40284;52.878;5.998;2023-06-10T10:34:15;8.65;;;3.90;;
54384;SDS011;40284;52.878;5.998;2023-06-10T10:36:42;4.68;;;3.60;;
54384;SDS011;40284;52.878;5.998;2023-06-10T10:39:08;6.47;;;3.30;;
54384;SDS011;40284;52.878;5.998;2023-06-10T10:41:35;4.93;;;3.50;;
54384;SDS011;40284;52.878;5.998;2023-06-10T10:44:02;11.85;;;3.78;;
54384;SDS011;40284;52.878;5.998;2023-06-10T10:46:41;4.80;;;3.20;;
54384;SDS011;40284;52.878;5.998;2023-06-10T10:49:08;7.38;;;3.28;;
54384;SDS011;40284;52.878;5.998;2023-06-10T10:51:34;7.75;;;3.30;;
54384;SDS011;40284;52.878;5.998;2023-06-10T10:54:14;8.73;;;3.42;;
54384;SDS011;40284;52.878;5.998;2023-06-10T10:56:51;7.40;;;3.63;;
54384;SDS011;40284;52.878;5.998;2023-06-10T10:59:26;7.38;;;3.50;;
54384;SDS011;40284;52.878;5.998;2023-06-10T11:02:08;7.03;;;3.90;;
54384;SDS011;40284;52.878;5.998;2023-06-10T11:04:34;5.18;;;3.70;;
54384;SDS011;40284;52.878;5.998;2023-06-10T11:07:06;4.75;;;3.63;;
54384;SDS011;40284;52.878;5.998;2023-06-10T11:09:33;3.45;;;2.75;;
54384;SDS011;40284;52.878;5.998;2023-06-10T11:11:59;7.53;;;3.63;;
54384;SDS011;40284;52.878;5.998;2023-06-10T11:14:28;6.50;;;2.72;;
54384;SDS011;40284;52.878;5.998;2023-06-10T11:16:57;5.88;;;3.13;;
54384;SDS011;40284;52.878;5.998;2023-06-10T11:22:06;8.45;;;3.42;;
54384;SDS011;40284;52.878;5.998;2023-06-10T11:24:32;5.72;;;3.33;;
54384;SDS011;40284;52.878;5.998;2023-06-10T11:27:32;5.50;;;3.15;;
54384;SDS011;40284;52.878;5.998;2023-06-10T11:32:29;8.75;;;3.33;;
54384;SDS011;40284;52.878;5.998;2023-06-10T11:34:59;8.18;;;3.33;;
54384;SDS011;40284;52.878;5.998;2023-06-10T11:37:25;5.82;;;3.22;;
54384;SDS011;40284;52.878;5.998;2023-06-10T11:39:53;3.80;;;2.80;;
54384;SDS011;40284;52.878;5.998;2023-06-10T11:42:19;7.63;;;3.40;;
54384;SDS011;40284;52.878;5.998;2023-06-10T11:44:52;6.33;;;3.00;;
54384;SDS011;40284;52.878;5.998;2023-06-10T11:47:19;6.78;;;3.60;;
54384;SDS011;40284;52.878;5.998;2023-06-10T11:49:46;5.22;;;2.90;;
54384;SDS011;40284;52.878;5.998;2023-06-10T11:52:13;10.57;;;3.28;;
54384;SDS011;40284;52.878;5.998;2023-06-10T11:54:39;11.55;;;3.33;;
54384;SDS011;40284;52.878;5.998;2023-06-10T11:57:05;23.25;;;5.68;;
54384;SDS011;40284;52.878;5.998;2023-06-10T11:59:33;28.98;;;6.75;;
54384;SDS011;40284;52.878;5.998;2023-06-10T12:01:59;6.07;;;2.85;;
54384;SDS011;40284;52.878;5.998;2023-06-10T12:04:25;3.72;;;2.88;;
54384;SDS011;40284;52.878;5.998;2023-06-10T12:06:52;4.05;;;2.58;;
54384;SDS011;40284;52.878;5.998;2023-06-10T12:09:25;5.88;;;2.78;;
54384;SDS011;40284;52.878;5.998;2023-06-10T12:11:52;4.25;;;2.65;;
54384;SDS011;40284;52.878;5.998;2023-06-10T12:17:04;5.28;;;2.60;;
54384;SDS011;40284;52.878;5.998;2023-06-10T12:19:30;8.43;;;2.80;;
54384;SDS011;40284;52.878;5.998;2023-06-10T12:21:57;6.55;;;2.60;;
54384;SDS011;40284;52.878;5.998;2023-06-10T12:24:26;4.53;;;3.38;;
54384;SDS011;40284;52.878;5.998;2023-06-10T12:26:53;8.25;;;3.30;;
54384;SDS011;40284;52.878;5.998;2023-06-10T12:29:20;4.88;;;2.42;;
54384;SDS011;40284;52.878;5.998;2023-06-10T12:31:51;4.70;;;2.78;;
54384;SDS011;40284;52.878;5.998;2023-06-10T12:34:18;4.93;;;2.70;;
54384;SDS011;40284;52.878;5.998;2023-06-10T12:36:48;5.43;;;2.55;;
54384;SDS011;40284;52.878;5.998;2023-06-10T12:39:14;3.45;;;2.65;;
54384;SDS011;40284;52.878;5.998;2023-06-10T12:41:39;6.53;;;2.45;;
54384;SDS011;40284;52.878;5.998;2023-06-10T12:44:06;6.47;;;2.80;;
54384;SDS011;40284;52.878;5.998;2023-06-10T12:46:36;5.07;;;2.65;;
54384;SDS011;40284;52.878;5.998;2023-06-10T12:49:02;7.38;;;2.28;;
54384;SDS011;40284;52.878;5.998;2023-06-10T12:51:28;5.63;;;2.83;;
54384;SDS011;40284;52.878;5.998;2023-06-10T12:53:54;4.90;;;2.90;;
54384;SDS011;40284;52.878;5.998;2023-06-10T12:56:20;6.18;;;2.80;;
54384;SDS011;40284;52.878;5.998;2023-06-10T12:58:47;4.05;;;2.47;;
54384;SDS011;40284;52.878;5.998;2023-06-10T13:01:13;4.50;;;2.60;;
54384;SDS011;40284;52.878;5.998;2023-06-10T13:03:39;7.35;;;2.55;;
54384;SDS011;40284;52.878;5.998;2023-06-10T13:06:05;5.45;;;2.50;;
54384;SDS011;40284;52.878;5.998;2023-06-10T13:08:32;3.88;;;2.53;;
54384;SDS011;40284;52.878;5.998;2023-06-10T13:10:58;5.75;;;3.42;;
54384;SDS011;40284;52.878;5.998;2023-06-10T13:13:24;4.18;;;2.90;;
54384;SDS011;40284;52.878;5.998;2023-06-10T13:15:51;8.05;;;3.75;;
54384;SDS011;40284;52.878;5.998;2023-06-10T13:18:17;6.03;;;3.00;;
54384;SDS011;40284;52.878;5.998;2023-06-10T13:20:45;3.83;;;2.50;;
54384;SDS011;40284;52.878;5.998;2023-06-10T13:23:11;5.40;;;2.30;;
54384;SDS011;40284;52.878;5.998;2023-06-10T13:25:38;4.68;;;2.53;;
54384;SDS011;40284;52.878;5.998;2023-06-10T13:28:05;4.60;;;2.83;;
54384;SDS011;40284;52.878;5.998;2023-06-10T13:30:32;7.75;;;3.22;;
54384;SDS011;40284;52.878;5.998;2023-06-10T13:32:58;4.10;;;3.15;;
54384;SDS011;40284;52.878;5.998;2023-06-10T13:35:25;5.97;;;2.22;;
54384;SDS011;40284;52.878;5.998;2023-06-10T13:37:51;5.18;;;3.75;;
54384;SDS011;40284;52.878;5.998;2023-06-10T13:40:17;6.13;;;2.58;;
54384;SDS011;40284;52.878;5.998;2023-06-10T13:42:44;3.90;;;2.13;;
54384;SDS011;40284;52.878;5.998;2023-06-10T13:45:15;6.63;;;2.55;;
54384;SDS011;40284;52.878;5.998;2023-06-10T13:47:42;9.57;;;2.75;;
54384;SDS011;40284;52.878;5.998;2023-06-10T13:50:08;8.73;;;5.55;;
54384;SDS011;40284;52.878;5.998;2023-06-10T13:52:34;5.07;;;2.50;;
54384;SDS011;40284;52.878;5.998;2023-06-10T13:55:00;4.30;;;2.17;;
54384;SDS011;40284;52.878;5.998;2023-06-10T13:57:27;4.13;;;2.33;;
54384;SDS011;40284;52.878;5.998;2023-06-10T13:59:53;5.07;;;2.35;;
54384;SDS011;40284;52.878;5.998;2023-06-10T14:02:21;4.75;;;2.40;;
54384;SDS011;40284;52.878;5.998;2023-06-10T14:04:47;11.13;;;3.38;;
54384;SDS011;40284;52.878;5.998;2023-06-10T14:07:13;6.47;;;3.22;;
54384;SDS011;40284;52.878;5.998;2023-06-10T14:09:38;4.22;;;2.65;;
54384;SDS011;40284;52.878;5.998;2023-06-10T14:12:04;3.70;;;2.45;;
54384;SDS011;40284;52.878;5.998;2023-06-10T14:14:31;4.10;;;3.20;;
54384;SDS011;40284;52.878;5.998;2023-06-10T14:16:58;5.15;;;2.08;;
54384;SDS011;40284;52.878;5.998;2023-06-10T14:19:24;4.68;;;3.03;;
54384;SDS011;40284;52.878;5.998;2023-06-10T14:21:50;4.53;;;2.65;;
54384;SDS011;40284;52.878;5.998;2023-06-10T14:24:18;13.68;;;2.13;;
54384;SDS011;40284;52.878;5.998;2023-06-10T14:26:44;7.35;;;2.50;;
54384;SDS011;40284;52.878;5.998;2023-06-10T14:29:10;3.10;;;1.90;;
54384;SDS011;40284;52.878;5.998;2023-06-10T14:31:39;4.38;;;2.45;;
54384;SDS011;40284;52.878;5.998;2023-06-10T14:34:05;13.02;;;4.82;;
54384;SDS011;40284;52.878;5.998;2023-06-10T14:36:33;6.13;;;3.72;;
54384;SDS011;40284;52.878;5.998;2023-06-10T14:39:00;8.18;;;4.13;;
54384;SDS011;40284;52.878;5.998;2023-06-10T14:41:26;11.40;;;8.02;;
54384;SDS011;40284;52.878;5.998;2023-06-10T14:43:52;4.60;;;2.53;;
54384;SDS011;40284;52.878;5.998;2023-06-10T14:46:18;7.57;;;2.58;;
54384;SDS011;40284;52.878;5.998;2023-06-10T14:48:46;4.40;;;2.67;;
54384;SDS011;40284;52.878;5.998;2023-06-10T14:51:12;6.63;;;2.92;;
54384;SDS011;40284;52.878;5.998;2023-06-10T14:53:38;6.78;;;2.65;;
54384;SDS011;40284;52.878;5.998;2023-06-10T14:56:04;6.88;;;3.05;;
54384;SDS011;40284;52.878;5.998;2023-06-10T14:58:30;4.93;;;2.22;;
54384;SDS011;40284;52.878;5.998;2023-06-10T15:00:56;4.13;;;2.50;;